Time;durP1;ratioP1;P1;durP2;ratioP2;P2;SDS_P1;SDS_P2;PMS_P1;PMS_P2;Temp;Humidity;BMP_temperature;BMP_pressure;BME280_temperature;BME280_humidity;BME280_pressure;Samples;Min_cycle;Max_cycle;Signal;HPM_P1;HPM_P2
2022/12/01 00:00:13;;;;;;;0.11;0.11;;;;;;;5.98;100.00;100028.53;2504209;27;20463;-78
2022/12/01 00:00:24;;;;;;;0.00;0.00;;;;;;;5.97;100.00;100035.47;353431;28;931;-78
2022/12/01 00:00:34;;;;;;;0.10;0.10;;;;;;;5.99;100.00;100038.03;349011;28;1302;-78
2022/12/01 00:00:44;;;;;;;0.10;0.10;;;;;;;5.99;100.00;100035.44;347706;28;1160;-78
2022/12/01 00:00:55;;;;;;;0.08;0.08;;;;;;;6.00;100.00;100034.56;346348;28;1348;-77
2022/12/01 00:01:05;;;;;;;0.20;0.20;;;;;;;6.00;100.00;100031.97;347652;28;1274;-78
2022/12/01 00:01:16;;;;;;;0.20;0.20;;;;;;;6.01;100.00;100025.88;349133;28;1223;-78
2022/12/01 00:01:26;;;;;;;0.20;0.20;;;;;;;6.03;100.00;100042.31;347320;28;1212;-79
2022/12/01 00:01:37;;;;;;;0.30;0.30;;;;;;;6.04;100.00;100036.22;348618;28;1431;-79
2022/12/01 00:01:48;;;;;;;0.40;0.40;;;;;;;6.02;100.00;100027.59;347550;28;1387;-78
2022/12/01 00:02:03;;;;;;;0.75;0.75;;;;;;;6.03;100.00;100031.91;347247;28;936;-80
2022/12/01 00:02:13;;;;;;;0.70;0.70;;;;;;;6.04;100.00;100033.63;347427;28;1072;-81
2022/12/01 00:02:25;;;;;;;0.60;0.60;;;;;;;6.05;100.00;100024.97;345854;28;1281;-79
2022/12/01 00:02:37;;;;;;;0.55;0.55;;;;;;;6.04;100.00;100031.03;344249;28;3051;-80
2022/12/01 00:02:47;;;;;;;0.63;0.63;;;;;;;6.04;100.00;100036.22;344473;28;2522;-79
2022/12/01 00:02:58;;;;;;;0.60;0.60;;;;;;;6.02;100.00;100034.53;346054;28;1292;-79
2022/12/01 00:03:08;;;;;;;0.50;0.50;;;;;;;5.97;100.00;100037.19;345380;28;1316;-78
2022/12/01 00:03:19;;;;;;;0.30;0.30;;;;;;;5.96;100.00;100038.09;343589;28;1420;-78
2022/12/01 00:03:30;;;;;;;0.20;0.20;;;;;;;5.95;100.00;100036.38;344954;28;1213;-78
2022/12/01 00:03:40;;;;;;;0.10;0.10;;;;;;;5.94;100.00;100032.06;343561;28;1256;-78
2022/12/01 00:03:50;;;;;;;0.10;0.10;;;;;;;5.95;100.00;100034.63;344675;28;1216;-78
2022/12/01 00:04:01;;;;;;;0.10;0.10;;;;;;;5.94;100.00;100034.66;342834;28;1153;-78
2022/12/01 00:04:11;;;;;;;0.10;0.10;;;;;;;5.94;100.00;100029.47;346196;28;1359;-78
2022/12/01 00:04:22;;;;;;;0.10;0.10;;;;;;;5.93;100.00;100031.19;345349;28;1240;-78
2022/12/01 00:04:32;;;;;;;0.20;0.20;;;;;;;5.93;100.00;100032.94;345070;28;1035;-78
2022/12/01 00:04:42;;;;;;;0.20;0.20;;;;;;;5.94;100.00;100030.31;345036;28;1477;-78
2022/12/01 00:04:53;;;;;;;0.20;0.20;;;;;;;5.95;100.00;100028.56;342743;28;1189;-78
2022/12/01 00:05:03;;;;;;;0.20;0.20;;;;;;;5.95;100.00;100028.56;342514;28;924;-78
2022/12/01 00:05:14;;;;;;;0.30;0.30;;;;;;;5.94;100.00;100030.31;343833;28;832;-78
2022/12/01 00:05:24;;;;;;;0.25;0.25;;;;;;;5.98;100.00;100025.94;346419;28;1335;-78
2022/12/01 00:05:35;;;;;;;0.10;0.10;;;;;;;5.99;100.00;100032.84;346273;28;865;-78
2022/12/01 00:05:45;;;;;;;0.10;0.10;;;;;;;5.99;100.00;100033.69;345156;28;1386;-78
2022/12/01 00:06:03;;;;;;;0.08;0.08;;;;;;;6.04;100.00;100033.63;347332;28;1252;-78
2022/12/01 00:06:15;;;;;;;0.00;0.00;;;;;;;6.04;100.00;100028.44;342120;28;1375;-78
2022/12/01 00:06:26;;;;;;;0.00;0.00;;;;;;;6.06;100.00;100033.59;345928;28;1438;-78
2022/12/01 00:06:36;;;;;;;0.00;0.00;;;;;;;6.08;100.00;100027.47;344511;28;1204;-78
2022/12/01 00:06:46;;;;;;;0.00;0.00;;;;;;;6.08;100.00;100030.06;340766;28;1224;-77
2022/12/01 00:06:57;;;;;;;0.00;0.00;;;;;;;6.07;100.00;100036.16;340865;29;806;-77
2022/12/01 00:07:07;;;;;;;0.10;0.10;;;;;;;6.06;100.00;100031.00;342064;28;1199;-78
2022/12/01 00:07:17;;;;;;;0.20;0.20;;;;;;;6.02;100.00;100031.94;339877;28;1246;-77
2022/12/01 00:07:28;;;;;;;0.30;0.30;;;;;;;5.99;100.00;100032.84;346166;28;1341;-77
2022/12/01 00:07:38;;;;;;;0.20;0.20;;;;;;;5.97;100.00;100029.41;344366;28;1611;-77
2022/12/01 00:07:50;;;;;;;0.20;0.20;;;;;;;5.96;100.00;100031.16;343618;28;1464;-77
2022/12/01 00:08:01;;;;;;;0.17;0.17;;;;;;;5.96;100.00;100032.88;347485;28;1285;-77
2022/12/01 00:08:11;;;;;;;0.15;0.15;;;;;;;5.93;100.00;100031.19;344651;28;1227;-77
2022/12/01 00:08:22;;;;;;;0.20;0.20;;;;;;;5.94;100.00;100030.31;344705;28;1378;-77
2022/12/01 00:08:32;;;;;;;0.10;0.10;;;;;;;5.95;100.00;100025.97;344763;28;1449;-78
2022/12/01 00:10:25;;;;;;;0.00;0.00;;;;;;;5.95;100.00;100024.25;340492;29;1382;-77
2022/12/01 00:10:36;;;;;;;0.00;0.00;;;;;;;5.97;100.00;100019.88;335058;29;1572;-77
2022/12/01 00:10:46;;;;;;;0.00;0.00;;;;;;;6.00;100.00;100029.38;334679;29;1255;-77
2022/12/01 00:11:07;;;;;;;0.00;0.00;;;;;;;5.98;100.00;100023.34;326992;30;884;-77
2022/12/01 00:11:17;;;;;;;0.10;0.10;;;;;;;6.00;100.00;100025.03;325805;30;1609;-77
2022/12/01 00:11:28;;;;;;;0.00;0.00;;;;;;;6.00;100.00;100024.16;330599;29;1245;-77
2022/12/01 00:11:38;;;;;;;0.10;0.10;;;;;;;6.00;100.00;100029.38;326298;30;3135;-77
2022/12/01 00:11:49;;;;;;;0.10;0.10;;;;;;;6.01;100.00;100025.88;328761;30;2455;-76
2022/12/01 00:11:59;;;;;;;0.10;0.10;;;;;;;6.03;100.00;100024.13;328219;30;843;-78
2022/12/01 00:12:09;;;;;;;0.10;0.10;;;;;;;6.05;100.00;100027.56;328813;30;1449;-78
2022/12/01 00:12:20;;;;;;;0.20;0.20;;;;;;;6.07;100.00;100025.75;326198;30;1804;-78
2022/12/01 00:12:30;;;;;;;0.30;0.30;;;;;;;6.08;100.00;100022.28;325248;30;1161;-77
2022/12/01 00:12:42;;;;;;;0.30;0.30;;;;;;;6.09;100.00;100017.94;321912;30;1906;-77
2022/12/01 00:12:54;;;;;;;0.17;0.17;;;;;;;6.08;100.00;100016.22;321239;30;2322;-78
2022/12/01 00:13:04;;;;;;;0.13;0.13;;;;;;;6.07;100.00;100022.31;318656;30;2601;-77
2022/12/01 00:13:15;;;;;;;0.10;0.10;;;;;;;6.07;100.00;100025.75;316100;31;818;-77
2022/12/01 00:13:25;;;;;;;0.17;0.17;;;;;;;6.05;100.00;100021.50;320215;30;2660;-77
2022/12/01 00:13:36;;;;;;;0.20;0.20;;;;;;;6.01;100.00;100023.28;320422;30;1987;-76
2022/12/01 00:13:47;;;;;;;0.28;0.28;;;;;;;6.00;100.00;100024.16;317641;31;1277;-78
2022/12/01 00:13:57;;;;;;;0.47;0.47;;;;;;;5.99;100.00;100019.84;316342;31;1062;-78
2022/12/01 00:14:08;;;;;;;0.40;0.40;;;;;;;5.99;100.00;100015.50;315923;31;1650;-78
2022/12/01 00:14:18;;;;;;;0.30;0.30;;;;;;;6.00;100.00;100018.97;315008;31;1948;-78
2022/12/01 00:14:28;;;;;;;0.10;0.10;;;;;;;6.01;100.00;100023.28;315205;31;1472;-78
2022/12/01 00:14:39;;;;;;;0.20;0.20;;;;;;;6.03;100.00;100024.13;315240;31;2395;-78
2022/12/01 00:14:53;;;;;;;0.20;0.20;;;;;;;6.04;100.00;100020.63;312965;31;2728;-78
2022/12/01 00:15:04;;;;;;;0.10;0.10;;;;;;;6.05;100.00;100024.09;311389;31;3018;-78
2022/12/01 00:15:15;;;;;;;0.10;0.10;;;;;;;6.06;100.00;100026.66;315188;31;1224;-77
2022/12/01 00:15:26;;;;;;;0.10;0.10;;;;;;;6.07;100.00;100017.09;314683;31;3325;-78
2022/12/01 00:15:36;;;;;;;0.10;0.10;;;;;;;6.07;100.00;100015.38;317638;30;3384;-77
2022/12/01 00:15:47;;;;;;;0.10;0.10;;;;;;;6.07;100.00;100017.97;317739;31;2381;-77
2022/12/01 00:15:57;;;;;;;0.20;0.20;;;;;;;6.09;100.00;100012.75;313031;31;1515;-77
2022/12/01 00:16:09;;;;;;;0.40;0.40;;;;;;;6.08;100.00;100017.09;315117;31;1709;-77
2022/12/01 00:16:20;;;;;;;0.65;0.65;;;;;;;6.10;100.00;100015.31;316558;31;2345;-77
2022/12/01 00:16:31;;;;;;;0.47;0.47;;;;;;;6.09;100.00;100015.34;316338;31;909;-77
2022/12/01 00:16:43;;;;;;;0.40;0.40;;;;;;;6.06;100.00;100013.69;309490;31;1878;-77
2022/12/01 00:16:53;;;;;;;0.13;0.13;;;;;;;6.07;100.00;100017.97;308599;31;3576;-78
2022/12/01 00:17:04;;;;;;;0.13;0.13;;;;;;;6.06;100.00;100012.81;305391;32;3788;-78
2022/12/01 00:17:14;;;;;;;0.20;0.20;;;;;;;6.06;100.00;100018.88;304317;32;1260;-78
2022/12/01 00:17:28;;;;;;;0.30;0.30;;;;;;;6.06;100.00;100013.69;304571;32;4149;-78
2022/12/01 00:17:42;;;;;;;0.20;0.20;;;;;;;6.07;100.00;100015.38;303716;32;4207;-77
2022/12/01 00:17:52;;;;;;;0.10;0.10;;;;;;;6.05;100.00;100011.97;301107;32;4159;-77
2022/12/01 00:18:04;;;;;;;0.10;0.10;;;;;;;6.08;100.00;100011.03;297451;32;3127;-77
2022/12/01 00:18:14;;;;;;;0.20;0.20;;;;;;;6.08;100.00;100017.09;297260;33;1331;-77
2022/12/01 00:18:25;;;;;;;0.20;0.20;;;;;;;6.11;100.00;100019.63;298568;33;2521;-77
2022/12/01 00:18:36;;;;;;;0.20;0.20;;;;;;;6.11;100.00;100014.44;296044;33;3844;-77
2022/12/01 00:18:51;;;;;;;0.20;0.20;;;;;;;6.14;100.00;100011.78;295088;33;964;-77
2022/12/01 00:19:01;;;;;;;0.20;0.20;;;;;;;6.14;100.00;100016.97;295944;33;1923;-77
2022/12/01 00:19:12;;;;;;;0.10;0.10;;;;;;;6.15;100.00;100018.69;289411;34;856;-77
2022/12/01 00:19:25;;;;;;;0.10;0.10;;;;;;;6.17;100.00;100019.53;287729;34;5453;-78
2022/12/01 00:19:36;;;;;;;0.20;0.20;;;;;;;6.19;100.00;100015.16;286785;33;5145;-77
2022/12/01 00:19:46;;;;;;;0.20;0.20;;;;;;;6.19;100.00;100019.50;286651;34;873;-77
2022/12/01 00:19:57;;;;;;;0.30;0.30;;;;;;;6.17;100.00;100016.94;283738;34;798;-76
2022/12/01 00:20:08;;;;;;;0.30;0.30;;;;;;;6.14;100.00;100016.97;283357;34;3221;-76
2022/12/01 00:20:18;;;;;;;0.17;0.17;;;;;;;6.11;100.00;100014.44;282753;34;4229;-76
2022/12/01 00:20:28;;;;;;;0.10;0.10;;;;;;;6.09;100.00;100018.78;280932;35;1204;-77
2022/12/01 00:20:39;;;;;;;0.10;0.10;;;;;;;6.07;100.00;100015.38;280689;34;4480;-77
2022/12/01 00:20:54;;;;;;;0.10;0.10;;;;;;;6.07;100.00;100020.56;280300;34;6993;-77
2022/12/01 00:21:05;;;;;;;0.05;0.05;;;;;;;6.07;100.00;100015.38;279304;35;5964;-77
2022/12/01 00:21:16;;;;;;;0.00;0.00;;;;;;;6.05;100.00;100017.16;279249;35;862;-77
2022/12/01 00:21:28;;;;;;;0.20;0.20;;;;;;;6.05;100.00;100021.50;274905;36;1308;-80
2022/12/01 00:21:39;;;;;;;0.30;0.30;;;;;;;6.05;100.00;100027.56;273571;35;7318;-78
2022/12/01 00:21:49;;;;;;;0.25;0.25;;;;;;;6.04;100.00;100019.78;272346;35;8398;-78
2022/12/01 00:21:59;;;;;;;0.20;0.20;;;;;;;6.02;100.00;100018.94;274716;36;1380;-78
2022/12/01 00:22:10;;;;;;;0.10;0.10;;;;;;;5.98;100.00;100021.59;272429;35;5719;-77
2022/12/01 00:22:20;;;;;;;0.10;0.10;;;;;;;5.98;100.00;100028.53;269946;36;5271;-77
2022/12/01 00:23:59;;;;;;;0.16;0.16;;;;;;;5.97;100.00;100021.63;2500357;27;20483;-78
2022/12/01 00:24:10;;;;;;;0.00;0.00;;;;;;;5.96;100.00;100018.16;353034;28;1321;-78
2022/12/01 00:24:22;;;;;;;0.00;0.00;;;;;;;5.95;100.00;100021.63;351525;28;1489;-77
2022/12/01 00:24:32;;;;;;;0.00;0.00;;;;;;;5.99;100.00;100022.44;351854;28;1318;-78
2022/12/01 00:24:43;;;;;;;0.00;0.00;;;;;;;5.98;100.00;100025.94;348992;28;808;-78
2022/12/01 00:24:53;;;;;;;0.00;0.00;;;;;;;5.98;100.00;100020.75;349006;28;927;-78
2022/12/01 00:25:04;;;;;;;0.10;0.10;;;;;;;5.98;100.00;100023.34;350390;28;1326;-78
2022/12/01 00:25:16;;;;;;;0.10;0.10;;;;;;;5.98;100.00;100025.94;349096;28;1365;-79
2022/12/01 00:25:27;;;;;;;0.25;0.25;;;;;;;5.98;100.00;100025.94;349459;28;1345;-79
2022/12/01 00:25:37;;;;;;;0.35;0.35;;;;;;;5.96;100.00;100020.75;348807;28;1517;-77
2022/12/01 00:25:48;;;;;;;0.30;0.30;;;;;;;5.96;100.00;100022.50;348795;28;1497;-77
2022/12/01 00:26:04;;;;;;;0.22;0.22;;;;;;;5.96;100.00;100022.50;350373;28;1227;-77
2022/12/01 00:26:15;;;;;;;0.10;0.10;;;;;;;5.99;100.00;100027.66;348218;28;1454;-77
2022/12/01 00:26:26;;;;;;;0.00;0.00;;;;;;;5.96;100.00;100022.50;348676;28;1086;-80
2022/12/01 00:26:36;;;;;;;0.00;0.00;;;;;;;5.98;100.00;100025.94;349078;28;1329;-77
2022/12/01 00:26:47;;;;;;;0.10;0.10;;;;;;;5.96;100.00;100018.16;348898;28;1367;-78
2022/12/01 00:26:57;;;;;;;0.20;0.20;;;;;;;5.99;100.00;100022.44;348979;28;1326;-78
2022/12/01 00:27:08;;;;;;;0.30;0.30;;;;;;;6.01;100.00;100028.47;347537;28;1327;-78
2022/12/01 00:27:18;;;;;;;0.28;0.28;;;;;;;6.02;100.00;100027.59;349130;28;852;-78
2022/12/01 00:27:28;;;;;;;0.20;0.20;;;;;;;6.04;100.00;100022.38;348810;28;1242;-77
2022/12/01 00:27:40;;;;;;;0.08;0.08;;;;;;;6.04;100.00;100025.84;347987;28;1523;-77
2022/12/01 00:27:51;;;;;;;0.08;0.08;;;;;;;6.04;100.00;100025.84;349135;28;1113;-79
2022/12/01 00:28:01;;;;;;;0.10;0.10;;;;;;;6.04;100.00;100027.56;346180;28;1222;-78
2022/12/01 00:28:11;;;;;;;0.10;0.10;;;;;;;6.03;100.00;100024.13;346202;28;960;-78
2022/12/01 00:28:22;;;;;;;0.10;0.10;;;;;;;5.99;100.00;100019.84;347492;28;934;-78
2022/12/01 00:28:32;;;;;;;0.10;0.10;;;;;;;5.98;100.00;100021.59;347571;28;790;-78
2022/12/01 00:28:43;;;;;;;0.10;0.10;;;;;;;5.98;100.00;100020.75;343620;28;1273;-78
2022/12/01 00:28:55;;;;;;;0.10;0.10;;;;;;;5.98;100.00;100020.75;342543;28;1364;-78
2022/12/01 00:29:05;;;;;;;0.05;0.05;;;;;;;6.00;100.00;100019.84;340827;28;1264;-78
2022/12/01 00:29:16;;;;;;;0.03;0.03;;;;;;;6.03;100.00;100020.66;346295;28;1311;-78
2022/12/01 00:29:26;;;;;;;0.13;0.13;;;;;;;6.03;100.00;100021.53;345868;28;1283;-78
2022/12/01 00:29:36;;;;;;;0.20;0.20;;;;;;;6.04;100.00;100025.84;342800;28;1336;-78
2022/12/01 00:29:47;;;;;;;0.20;0.20;;;;;;;6.04;100.00;100018.03;340546;28;3512;-78
2022/12/01 00:29:57;;;;;;;0.10;0.10;;;;;;;6.04;100.00;100020.63;343115;28;2626;-78
2022/12/01 00:30:10;;;;;;;0.10;0.10;;;;;;;6.06;100.00;100024.06;346029;28;1184;-78
2022/12/01 00:30:20;;;;;;;0.10;0.10;;;;;;;6.05;100.00;100022.34;344674;28;1410;-78
2022/12/01 00:30:31;;;;;;;0.03;0.03;;;;;;;6.06;100.00;100018.88;343579;28;861;-78
2022/12/01 00:30:41;;;;;;;0.10;0.10;;;;;;;6.03;100.00;100025.88;342920;28;1316;-78
2022/12/01 00:30:53;;;;;;;0.10;0.10;;;;;;;6.00;100.00;100018.97;341454;28;1234;-78
2022/12/01 00:31:07;;;;;;;0.10;0.10;;;;;;;5.99;100.00;100017.25;339663;29;920;-78
2022/12/01 00:31:18;;;;;;;0.00;0.00;;;;;;;6.00;100.00;100021.56;340903;28;1368;-78
2022/12/01 00:31:28;;;;;;;0.00;0.00;;;;;;;6.01;100.00;100025.88;342445;28;1198;-78
2022/12/01 00:31:39;;;;;;;0.10;0.10;;;;;;;6.02;100.00;100021.53;341487;28;1230;-78
2022/12/01 00:31:49;;;;;;;0.08;0.08;;;;;;;6.01;100.00;100023.28;336623;29;1398;-78
2022/12/01 00:31:59;;;;;;;0.10;0.10;;;;;;;6.02;100.00;100021.53;334325;29;799;-78
2022/12/01 00:32:10;;;;;;;0.10;0.10;;;;;;;6.04;100.00;100019.78;332798;29;1168;-78
2022/12/01 00:32:20;;;;;;;0.10;0.10;;;;;;;6.06;100.00;100020.63;334533;29;1257;-78
2022/12/01 00:32:31;;;;;;;0.10;0.10;;;;;;;6.06;100.00;100016.28;333134;29;1212;-78
2022/12/01 00:32:41;;;;;;;0.00;0.00;;;;;;;6.06;100.00;100012.81;339566;29;1751;-78
2022/12/01 00:32:51;;;;;;;0.00;0.00;;;;;;;6.07;100.00;100022.31;336804;29;1615;-78
2022/12/01 00:33:02;;;;;;;0.10;0.10;;;;;;;6.08;100.00;100017.09;335448;29;1347;-78
2022/12/01 00:33:12;;;;;;;0.10;0.10;;;;;;;6.08;100.00;100016.22;338066;29;1319;-78
2022/12/01 00:33:23;;;;;;;0.10;0.10;;;;;;;6.06;100.00;100011.09;339509;29;1165;-78
2022/12/01 00:33:33;;;;;;;0.20;0.20;;;;;;;6.05;100.00;100017.16;336489;29;1215;-78
2022/12/01 00:33:43;;;;;;;0.20;0.20;;;;;;;6.03;100.00;100024.13;334216;29;1391;-78
2022/12/01 00:33:54;;;;;;;0.30;0.30;;;;;;;6.03;100.00;100018.94;335014;29;1605;-78
2022/12/01 00:34:04;;;;;;;0.20;0.20;;;;;;;6.02;100.00;100017.22;335601;29;1610;-78
2022/12/01 00:34:22;;;;;;;0.20;0.20;;;;;;;5.98;100.00;100015.53;334792;29;877;-78
2022/12/01 00:34:33;;;;;;;0.00;0.00;;;;;;;5.98;100.00;100012.94;331444;29;2020;-77
2022/12/01 00:34:44;;;;;;;0.00;0.00;;;;;;;6.00;100.00;100019.84;333558;29;1283;-78
2022/12/01 00:34:54;;;;;;;0.10;0.10;;;;;;;6.02;100.00;100017.22;334113;29;2103;-78
2022/12/01 00:35:05;;;;;;;0.10;0.10;;;;;;;6.03;100.00;100011.13;335236;29;1709;-78
2022/12/01 00:35:16;;;;;;;0.20;0.20;;;;;;;6.04;100.00;100015.44;335422;29;1362;-78
2022/12/01 00:35:26;;;;;;;0.17;0.17;;;;;;;6.05;100.00;100011.09;331780;29;1256;-78
2022/12/01 00:35:36;;;;;;;0.17;0.17;;;;;;;6.06;100.00;100011.09;332928;29;1365;-77
2022/12/01 00:35:47;;;;;;;0.20;0.20;;;;;;;6.07;100.00;100015.38;330480;29;1211;-77
2022/12/01 00:35:58;;;;;;;0.20;0.20;;;;;;;6.09;100.00;100013.59;332683;29;1432;-77
2022/12/01 00:36:09;;;;;;;0.17;0.17;;;;;;;6.08;100.00;100011.03;330130;29;2062;-78
2022/12/01 00:36:19;;;;;;;0.17;0.17;;;;;;;6.08;100.00;100011.88;326480;29;2117;-78
2022/12/01 00:36:30;;;;;;;0.17;0.17;;;;;;;6.08;100.00;100022.28;326967;30;1254;-78
2022/12/01 00:36:40;;;;;;;0.30;0.30;;;;;;;6.07;100.00;100017.97;329946;29;2285;-78
2022/12/01 00:36:50;;;;;;;0.30;0.30;;;;;;;6.08;100.00;100014.47;328556;30;2628;-78
2022/12/01 00:37:01;;;;;;;0.20;0.20;;;;;;;6.08;100.00;100017.09;329092;30;1329;-78
2022/12/01 00:37:12;;;;;;;0.20;0.20;;;;;;;6.10;100.00;100017.06;331280;29;2545;-78
2022/12/01 00:37:22;;;;;;;0.28;0.28;;;;;;;6.11;100.00;100011.84;331572;29;1904;-78
2022/12/01 00:37:33;;;;;;;0.30;0.30;;;;;;;6.13;100.00;100015.28;330187;29;1414;-78
2022/12/01 00:37:43;;;;;;;0.28;0.28;;;;;;;6.15;100.00;100015.25;321621;30;1046;-77
2022/12/01 00:37:54;;;;;;;0.08;0.08;;;;;;;6.15;100.00;100012.66;322681;30;1885;-78
2022/12/01 00:38:04;;;;;;;0.00;0.00;;;;;;;6.16;100.00;100015.22;322424;30;2286;-78
2022/12/01 00:38:15;;;;;;;0.10;0.10;;;;;;;6.17;100.00;100022.13;322092;30;1248;-78
2022/12/01 00:38:25;;;;;;;0.20;0.20;;;;;;;6.18;100.00;100010.84;318466;30;2821;-78
2022/12/01 00:38:36;;;;;;;0.22;0.22;;;;;;;6.18;100.00;100023.84;315834;30;3144;-78
2022/12/01 00:38:46;;;;;;;0.30;0.30;;;;;;;6.19;100.00;100015.16;315483;31;3004;-78
2022/12/01 00:38:57;;;;;;;0.30;0.30;;;;;;;6.19;100.00;100017.78;318145;30;3325;-78
2022/12/01 00:39:08;;;;;;;0.28;0.28;;;;;;;6.17;100.00;100011.75;320021;30;3508;-78
2022/12/01 00:39:18;;;;;;;0.28;0.28;;;;;;;6.17;100.00;100014.34;318005;31;3113;-78
2022/12/01 00:39:29;;;;;;;0.17;0.17;;;;;;;6.19;100.00;100015.16;314696;31;1213;-78
2022/12/01 00:39:39;;;;;;;0.17;0.17;;;;;;;6.18;100.00;100020.41;315757;31;2224;-77
2022/12/01 00:39:49;;;;;;;0.17;0.17;;;;;;;6.14;100.00;100016.97;318676;30;2269;-78
2022/12/01 00:40:00;;;;;;;0.30;0.30;;;;;;;6.10;100.00;100015.31;318471;31;1364;-78
2022/12/01 00:40:11;;;;;;;0.30;0.30;;;;;;;6.12;100.00;100020.50;313881;31;2953;-78
2022/12/01 00:40:21;;;;;;;0.13;0.13;;;;;;;6.13;100.00;100015.28;311883;31;3790;-77
2022/12/01 00:40:32;;;;;;;0.20;0.20;;;;;;;6.14;100.00;100009.19;311740;31;1290;-77
2022/12/01 00:40:42;;;;;;;0.30;0.30;;;;;;;6.14;100.00;100011.78;304402;31;4143;-78
2022/12/01 00:40:52;;;;;;;0.38;0.38;;;;;;;6.18;100.00;100023.00;302062;32;4500;-78
2022/12/01 00:41:03;;;;;;;0.40;0.40;;;;;;;6.15;100.00;100018.69;304500;32;4281;-78
2022/12/01 00:41:13;;;;;;;0.40;0.40;;;;;;;6.15;100.00;100012.66;302125;32;1287;-78
2022/12/01 00:41:24;;;;;;;0.40;0.40;;;;;;;6.14;100.00;100006.59;303036;32;4442;-78
2022/12/01 00:41:34;;;;;;;0.28;0.28;;;;;;;6.14;100.00;100010.94;301854;32;4498;-78
2022/12/01 00:41:45;;;;;;;0.20;0.20;;;;;;;6.14;100.00;100016.13;302224;32;881;-78
2022/12/01 00:41:55;;;;;;;0.10;0.10;;;;;;;6.15;100.00;100017.84;302982;32;3670;-78
2022/12/01 00:42:05;;;;;;;0.03;0.03;;;;;;;6.17;100.00;100021.28;302138;32;3327;-77
2022/12/01 00:42:19;;;;;;;0.10;0.10;;;;;;;6.13;100.00;100015.28;300093;32;1342;-79
2022/12/01 00:42:30;;;;;;;0.10;0.10;;;;;;;6.13;100.00;100015.28;297057;33;1381;-78
2022/12/01 00:42:40;;;;;;;0.20;0.20;;;;;;;6.15;100.00;100018.69;297021;33;5173;-78
2022/12/01 00:42:50;;;;;;;0.17;0.17;;;;;;;6.13;100.00;100010.06;295221;33;5872;-78
2022/12/01 00:43:01;;;;;;;0.20;0.20;;;;;;;6.14;100.00;100016.13;294087;33;938;-78
2022/12/01 00:43:11;;;;;;;0.30;0.30;;;;;;;6.13;100.00;100015.28;289478;33;6518;-77
2022/12/01 00:43:23;;;;;;;0.22;0.22;;;;;;;6.13;100.00;100015.28;291864;33;6912;-78
2022/12/01 00:43:33;;;;;;;0.28;0.28;;;;;;;6.13;100.00;100014.41;292052;33;6411;-78
2022/12/01 00:43:43;;;;;;;0.28;0.28;;;;;;;6.13;100.00;100014.41;292220;33;1305;-78
2022/12/01 00:43:54;;;;;;;0.27;0.27;;;;;;;6.12;100.00;100013.56;289944;33;6424;-78
2022/12/01 00:44:04;;;;;;;0.17;0.17;;;;;;;6.12;100.00;100012.69;288351;33;4694;-78
2022/12/01 00:44:15;;;;;;;0.10;0.10;;;;;;;6.11;100.00;100010.97;288269;34;1266;-79
2022/12/01 00:44:25;;;;;;;0.20;0.20;;;;;;;6.11;100.00;100011.84;286784;34;5322;-79
2022/12/01 00:44:35;;;;;;;0.37;0.37;;;;;;;6.11;100.00;100011.84;281606;34;7473;-79
2022/12/01 00:44:46;;;;;;;0.47;0.47;;;;;;;6.09;100.00;100013.59;277120;35;1313;-79
2022/12/01 00:44:57;;;;;;;0.47;0.47;;;;;;;6.10;100.00;100017.06;274829;35;8396;-79
2022/12/01 00:47:25;;;;;;;0.37;0.36;;;;;;;6.02;100.00;100006.81;2502418;27;20479;-78
2022/12/01 00:47:35;;;;;;;0.00;0.00;;;;;;;6.03;100.00;100018.94;352738;28;1504;-78
2022/12/01 00:47:45;;;;;;;0.00;0.00;;;;;;;6.02;100.00;100017.22;348526;28;1262;-78
2022/12/01 00:47:56;;;;;;;0.10;0.10;;;;;;;6.02;100.00;100009.41;347613;28;3335;-78
2022/12/01 00:48:06;;;;;;;0.20;0.20;;;;;;;6.02;100.00;100012.00;350275;28;2335;-78
2022/12/01 00:48:17;;;;;;;0.23;0.23;;;;;;;6.01;100.00;100007.69;350354;28;1192;-78
2022/12/01 00:48:27;;;;;;;0.30;0.30;;;;;;;6.03;100.00;100005.94;348857;28;1279;-78
2022/12/01 00:48:37;;;;;;;0.30;0.30;;;;;;;6.03;100.00;100013.72;348893;28;1298;-78
2022/12/01 00:48:48;;;;;;;0.30;0.30;;;;;;;6.03;100.00;100007.69;350202;28;1332;-78
2022/12/01 00:48:58;;;;;;;0.20;0.20;;;;;;;6.02;100.00;100006.81;349585;28;1304;-78
2022/12/01 00:49:11;;;;;;;0.10;0.10;;;;;;;6.02;100.00;100009.41;346264;28;1731;-78
2022/12/01 00:49:21;;;;;;;0.10;0.10;;;;;;;6.03;100.00;100011.13;348757;28;1054;-78
2022/12/01 00:49:32;;;;;;;0.13;0.13;;;;;;;6.04;100.00;100005.06;348789;28;813;-77
2022/12/01 00:49:44;;;;;;;0.10;0.10;;;;;;;6.05;100.00;100006.78;346747;28;813;-78
2022/12/01 00:49:54;;;;;;;0.15;0.15;;;;;;;6.07;100.00;100006.72;349068;28;836;-78
2022/12/01 00:50:05;;;;;;;0.03;0.03;;;;;;;6.06;100.00;100005.88;349556;28;1266;-78
2022/12/01 00:50:16;;;;;;;0.05;0.05;;;;;;;6.06;100.00;100003.28;347543;28;1359;-78
2022/12/01 00:50:26;;;;;;;0.10;0.10;;;;;;;6.08;100.00;100008.44;347471;28;1338;-78
2022/12/01 00:50:37;;;;;;;0.10;0.10;;;;;;;6.07;100.00;100007.56;347391;28;1449;-78
2022/12/01 00:50:48;;;;;;;0.20;0.20;;;;;;;6.09;100.00;100012.75;347167;28;1424;-77
2022/12/01 00:50:59;;;;;;;0.20;0.20;;;;;;;6.05;100.00;100006.78;343375;28;917;-77
2022/12/01 00:51:09;;;;;;;0.17;0.17;;;;;;;6.02;100.00;100005.97;344890;28;1263;-77
2022/12/01 00:51:20;;;;;;;0.10;0.10;;;;;;;6.03;100.00;100003.34;345630;28;1010;-77
2022/12/01 00:51:30;;;;;;;0.20;0.20;;;;;;;6.03;100.00;100007.69;344783;28;846;-77
2022/12/01 00:51:40;;;;;;;0.17;0.17;;;;;;;6.02;100.00;100009.41;343421;28;1395;-77
2022/12/01 00:51:51;;;;;;;0.20;0.20;;;;;;;6.03;100.00;100002.47;344390;28;1314;-77
2022/12/01 00:52:01;;;;;;;0.00;0.00;;;;;;;6.02;100.00;100001.63;343481;28;1288;-77
2022/12/01 00:52:12;;;;;;;0.10;0.10;;;;;;;6.01;100.00;100012.91;340868;29;1207;-77
2022/12/01 00:52:23;;;;;;;0.20;0.20;;;;;;;6.00;100.00;100003.38;343434;28;1465;-77
2022/12/01 00:52:33;;;;;;;0.17;0.17;;;;;;;6.00;100.00;100003.38;343410;28;1510;-77
2022/12/01 00:52:44;;;;;;;0.17;0.17;;;;;;;6.00;100.00;100003.38;345246;28;1224;-77
2022/12/01 00:52:54;;;;;;;0.10;0.10;;;;;;;6.03;100.00;100007.69;346084;28;1252;-77
2022/12/01 00:53:04;;;;;;;0.20;0.20;;;;;;;6.02;100.00;99999.03;348697;28;1249;-77
2022/12/01 00:53:15;;;;;;;0.10;0.10;;;;;;;6.04;100.00;99994.66;345687;28;854;-77
2022/12/01 00:53:25;;;;;;;0.10;0.10;;;;;;;6.06;100.00;100002.44;342170;28;1178;-77
2022/12/01 00:53:36;;;;;;;0.10;0.10;;;;;;;6.08;100.00;99995.44;345783;28;1207;-77
2022/12/01 00:53:46;;;;;;;0.13;0.13;;;;;;;6.09;100.00;99998.00;344596;28;1188;-77
2022/12/01 00:53:56;;;;;;;0.10;0.10;;;;;;;6.11;100.00;100000.59;342246;28;978;-77
2022/12/01 00:54:07;;;;;;;0.10;0.10;;;;;;;6.12;100.00;100005.75;344566;28;1133;-77
2022/12/01 00:54:18;;;;;;;0.10;0.10;;;;;;;6.10;100.00;99997.13;343530;28;1008;-77
2022/12/01 00:54:30;;;;;;;0.20;0.20;;;;;;;6.06;100.00;99999.84;343499;28;1345;-77
2022/12/01 00:54:41;;;;;;;0.13;0.13;;;;;;;6.02;100.00;100006.81;344757;28;1336;-77
2022/12/01 00:54:51;;;;;;;0.10;0.10;;;;;;;6.02;100.00;100001.63;348677;28;1215;-77
2022/12/01 00:55:02;;;;;;;0.03;0.03;;;;;;;5.98;100.00;99999.97;346031;28;1004;-78
2022/12/01 00:55:12;;;;;;;0.10;0.10;;;;;;;5.99;100.00;100001.66;343651;28;1168;-78
2022/12/01 00:55:23;;;;;;;0.20;0.20;;;;;;;5.99;100.00;99999.94;342312;28;1178;-78
2022/12/01 00:55:33;;;;;;;0.20;0.20;;;;;;;5.99;100.00;99996.47;339808;28;1625;-78
2022/12/01 00:55:43;;;;;;;0.10;0.10;;;;;;;6.01;100.00;100005.09;340598;28;1347;-78
2022/12/01 00:55:54;;;;;;;0.10;0.10;;;;;;;6.01;100.00;99999.91;340926;29;794;-78
2022/12/01 00:56:04;;;;;;;0.10;0.10;;;;;;;6.01;100.00;100007.69;343479;28;1570;-78
2022/12/01 00:56:15;;;;;;;0.10;0.10;;;;;;;6.00;100.00;100001.66;340536;29;1914;-78
2022/12/01 00:56:25;;;;;;;0.10;0.10;;;;;;;6.02;100.00;100005.97;337041;29;1234;-78
2022/12/01 00:56:36;;;;;;;0.10;0.10;;;;;;;6.01;100.00;100002.50;341380;28;1226;-78
2022/12/01 00:56:46;;;;;;;0.10;0.10;;;;;;;6.01;100.00;99999.91;343790;28;1222;-78
2022/12/01 00:56:59;;;;;;;0.10;0.10;;;;;;;6.03;100.00;100005.94;340578;28;4371;-78
2022/12/01 00:57:10;;;;;;;0.10;0.10;;;;;;;6.05;100.00;100001.56;338015;29;2380;-78
2022/12/01 00:57:20;;;;;;;0.13;0.13;;;;;;;6.06;100.00;100008.47;339521;28;1371;-78